sensor_id;sensor_type;location;lat;lon;timestamp;P1;durP1;ratioP1;P2;durP2;ratioP2
73120;SDS011;61307;49.628;-1.624;2023-04-15T00:01:21;2.63;;;1.02;;
73120;SDS011;61307;49.628;-1.624;2023-04-15T00:03:49;3.30;;;0.80;;
73120;SDS011;61307;49.628;-1.624;2023-04-15T00:06:17;4.32;;;1.23;;
73120;SDS011;61307;49.628;-1.624;2023-04-15T00:08:45;3.30;;;1.13;;
73120;SDS011;61307;49.628;-1.624;2023-04-15T00:11:13;2.97;;;1.05;;
73120;SDS011;61307;49.628;-1.624;2023-04-15T00:13:40;3.08;;;1.23;;
73120;SDS011;61307;49.628;-1.624;2023-04-15T00:16:08;1.88;;;1.02;;
73120;SDS011;61307;49.628;-1.624;2023-04-15T00:18:37;3.03;;;1.00;;
73120;SDS011;61307;49.628;-1.624;2023-04-15T00:21:04;2.40;;;1.10;;
73120;SDS011;61307;49.628;-1.624;2023-04-15T00:23:32;1.77;;;0.80;;
73120;SDS011;61307;49.628;-1.624;2023-04-15T00:26:00;1.67;;;0.80;;
73120;SDS011;61307;49.628;-1.624;2023-04-15T00:28:27;2.88;;;1.05;;
73120;SDS011;61307;49.628;-1.624;2023-04-15T00:30:55;2.00;;;0.98;;
73120;SDS011;61307;49.628;-1.624;2023-04-15T00:33:22;2.58;;;0.90;;
73120;SDS011;61307;49.628;-1.624;2023-04-15T00:35:51;2.63;;;1.00;;
73120;SDS011;61307;49.628;-1.624;2023-04-15T00:38:18;2.03;;;0.88;;
73120;SDS011;61307;49.628;-1.624;2023-04-15T00:40:45;3.20;;;1.05;;
73120;SDS011;61307;49.628;-1.624;2023-04-15T00:43:12;2.85;;;1.10;;
73120;SDS011;61307;49.628;-1.624;2023-04-15T00:45:40;4.47;;;1.20;;
73120;SDS011;61307;49.628;-1.624;2023-04-15T00:48:07;2.70;;;1.00;;
73120;SDS011;61307;49.628;-1.624;2023-04-15T00:50:35;3.22;;;1.08;;
73120;SDS011;61307;49.628;-1.624;2023-04-15T00:53:04;3.20;;;1.02;;
73120;SDS011;61307;49.628;-1.624;2023-04-15T00:55:31;3.20;;;1.00;;
73120;SDS011;61307;49.628;-1.624;2023-04-15T00:57:58;1.70;;;1.05;;
73120;SDS011;61307;49.628;-1.624;2023-04-15T01:00:25;2.92;;;1.08;;
73120;SDS011;61307;49.628;-1.624;2023-04-15T01:02:53;3.67;;;0.90;;
73120;SDS011;61307;49.628;-1.624;2023-04-15T01:05:20;3.70;;;1.23;;
73120;SDS011;61307;49.628;-1.624;2023-04-15T01:07:47;2.88;;;1.33;;
73120;SDS011;61307;49.628;-1.624;2023-04-15T01:10:16;3.95;;;1.20;;
73120;SDS011;61307;49.628;-1.624;2023-04-15T01:12:43;2.78;;;1.33;;
73120;SDS011;61307;49.628;-1.624;2023-04-15T01:15:10;2.75;;;0.98;;
73120;SDS011;61307;49.628;-1.624;2023-04-15T01:17:38;3.17;;;1.27;;
73120;SDS011;61307;49.628;-1.624;2023-04-15T01:20:05;3.47;;;1.10;;
73120;SDS011;61307;49.628;-1.624;2023-04-15T01:22:35;2.30;;;0.82;;
73120;SDS011;61307;49.628;-1.624;2023-04-15T01:25:04;2.97;;;0.90;;
73120;SDS011;61307;49.628;-1.624;2023-04-15T01:27:37;2.35;;;1.00;;
73120;SDS011;61307;49.628;-1.624;2023-04-15T01:30:05;3.85;;;1.00;;
73120;SDS011;61307;49.628;-1.624;2023-04-15T01:32:33;3.55;;;1.15;;
73120;SDS011;61307;49.628;-1.624;2023-04-15T01:35:00;2.55;;;1.00;;
73120;SDS011;61307;49.628;-1.624;2023-04-15T01:37:28;2.08;;;1.05;;
73120;SDS011;61307;49.628;-1.624;2023-04-15T01:39:55;2.45;;;1.02;;
73120;SDS011;61307;49.628;-1.624;2023-04-15T01:42:22;2.28;;;1.10;;
73120;SDS011;61307;49.628;-1.624;2023-04-15T01:44:51;3.22;;;1.05;;
73120;SDS011;61307;49.628;-1.624;2023-04-15T01:47:18;3.92;;;1.20;;
73120;SDS011;61307;49.628;-1.624;2023-04-15T01:49:45;3.00;;;0.95;;
73120;SDS011;61307;49.628;-1.624;2023-04-15T01:52:12;2.45;;;1.05;;
73120;SDS011;61307;49.628;-1.624;2023-04-15T01:54:39;2.88;;;1.02;;
73120;SDS011;61307;49.628;-1.624;2023-04-15T01:57:06;3.17;;;1.10;;
73120;SDS011;61307;49.628;-1.624;2023-04-15T01:59:33;3.83;;;1.05;;
73120;SDS011;61307;49.628;-1.624;2023-04-15T02:02:02;2.72;;;1.00;;
73120;SDS011;61307;49.628;-1.624;2023-04-15T02:04:29;4.10;;;1.30;;
73120;SDS011;61307;49.628;-1.624;2023-04-15T02:06:57;5.15;;;1.10;;
73120;SDS011;61307;49.628;-1.624;2023-04-15T02:09:23;3.78;;;1.10;;
73120;SDS011;61307;49.628;-1.624;2023-04-15T02:11:51;2.67;;;1.02;;
73120;SDS011;61307;49.628;-1.624;2023-04-15T02:14:18;5.20;;;1.50;;
73120;SDS011;61307;49.628;-1.624;2023-04-15T02:16:45;4.82;;;1.00;;
73120;SDS011;61307;49.628;-1.624;2023-04-15T02:19:14;2.60;;;1.25;;
73120;SDS011;61307;49.628;-1.624;2023-04-15T02:21:40;2.63;;;1.05;;
73120;SDS011;61307;49.628;-1.624;2023-04-15T02:24:07;3.80;;;1.08;;
73120;SDS011;61307;49.628;-1.624;2023-04-15T02:26:36;1.73;;;1.05;;
73120;SDS011;61307;49.628;-1.624;2023-04-15T02:29:03;2.75;;;0.93;;
73120;SDS011;61307;49.628;-1.624;2023-04-15T02:31:30;4.00;;;1.17;;
73120;SDS011;61307;49.628;-1.624;2023-04-15T02:34:00;4.82;;;1.25;;
73120;SDS011;61307;49.628;-1.624;2023-04-15T02:36:30;2.65;;;1.33;;
73120;SDS011;61307;49.628;-1.624;2023-04-15T02:38:58;2.92;;;1.13;;
73120;SDS011;61307;49.628;-1.624;2023-04-15T02:41:25;3.60;;;1.13;;
73120;SDS011;61307;49.628;-1.624;2023-04-15T02:43:52;3.50;;;1.10;;
73120;SDS011;61307;49.628;-1.624;2023-04-15T02:46:19;4.68;;;1.65;;
73120;SDS011;61307;49.628;-1.624;2023-04-15T02:48:47;2.35;;;1.05;;
73120;SDS011;61307;49.628;-1.624;2023-04-15T02:51:14;2.25;;;1.20;;
73120;SDS011;61307;49.628;-1.624;2023-04-15T02:53:45;3.15;;;1.02;;
73120;SDS011;61307;49.628;-1.624;2023-04-15T02:56:12;1.58;;;1.00;;
73120;SDS011;61307;49.628;-1.624;2023-04-15T02:58:42;4.22;;;1.20;;
73120;SDS011;61307;49.628;-1.624;2023-04-15T03:01:10;4.22;;;1.00;;
73120;SDS011;61307;49.628;-1.624;2023-04-15T03:03:37;3.58;;;0.80;;
73120;SDS011;61307;49.628;-1.624;2023-04-15T03:06:04;2.58;;;1.20;;
73120;SDS011;61307;49.628;-1.624;2023-04-15T03:08:32;2.13;;;1.05;;
73120;SDS011;61307;49.628;-1.624;2023-04-15T03:11:01;2.72;;;1.00;;
73120;SDS011;61307;49.628;-1.624;2023-04-15T03:13:28;2.97;;;1.00;;
73120;SDS011;61307;49.628;-1.624;2023-04-15T03:15:55;1.95;;;1.00;;
73120;SDS011;61307;49.628;-1.624;2023-04-15T03:18:22;3.92;;;1.40;;
73120;SDS011;61307;49.628;-1.624;2023-04-15T03:20:49;3.30;;;1.23;;
73120;SDS011;61307;49.628;-1.624;2023-04-15T03:23:17;3.42;;;1.50;;
73120;SDS011;61307;49.628;-1.624;2023-04-15T03:25:44;3.97;;;1.33;;
73120;SDS011;61307;49.628;-1.624;2023-04-15T03:28:13;4.43;;;1.30;;
73120;SDS011;61307;49.628;-1.624;2023-04-15T03:30:40;2.25;;;1.27;;
73120;SDS011;61307;49.628;-1.624;2023-04-15T03:33:07;3.10;;;1.30;;
73120;SDS011;61307;49.628;-1.624;2023-04-15T03:35:34;2.83;;;1.50;;
73120;SDS011;61307;49.628;-1.624;2023-04-15T03:38:01;3.25;;;1.40;;
73120;SDS011;61307;49.628;-1.624;2023-04-15T03:40:28;5.15;;;1.10;;
73120;SDS011;61307;49.628;-1.624;2023-04-15T03:42:55;4.63;;;1.40;;
73120;SDS011;61307;49.628;-1.624;2023-04-15T03:45:23;1.73;;;1.10;;
73120;SDS011;61307;49.628;-1.624;2023-04-15T03:47:50;2.42;;;1.25;;
73120;SDS011;61307;49.628;-1.624;2023-04-15T03:50:17;4.40;;;1.40;;
73120;SDS011;61307;49.628;-1.624;2023-04-15T03:52:44;2.38;;;1.02;;
73120;SDS011;61307;49.628;-1.624;2023-04-15T03:55:11;4.13;;;1.52;;
73120;SDS011;61307;49.628;-1.624;2023-04-15T03:57:38;3.17;;;1.20;;
73120;SDS011;61307;49.628;-1.624;2023-04-15T04:00:05;2.88;;;1.55;;
73120;SDS011;61307;49.628;-1.624;2023-04-15T04:02:36;2.38;;;1.17;;
73120;SDS011;61307;49.628;-1.624;2023-04-15T04:05:03;1.55;;;1.10;;
73120;SDS011;61307;49.628;-1.624;2023-04-15T04:07:30;3.58;;;1.60;;
73120;SDS011;61307;49.628;-1.624;2023-04-15T04:09:57;4.18;;;1.20;;
73120;SDS011;61307;49.628;-1.624;2023-04-15T04:12:24;2.88;;;1.50;;
73120;SDS011;61307;49.628;-1.624;2023-04-15T04:14:52;2.70;;;1.35;;
73120;SDS011;61307;49.628;-1.624;2023-04-15T04:17:19;3.33;;;1.13;;
73120;SDS011;61307;49.628;-1.624;2023-04-15T04:19:47;5.18;;;1.27;;
73120;SDS011;61307;49.628;-1.624;2023-04-15T04:22:14;4.07;;;1.50;;
73120;SDS011;61307;49.628;-1.624;2023-04-15T04:24:41;5.63;;;1.25;;
73120;SDS011;61307;49.628;-1.624;2023-04-15T04:27:08;3.42;;;1.40;;
73120;SDS011;61307;49.628;-1.624;2023-04-15T04:29:35;3.25;;;1.58;;
73120;SDS011;61307;49.628;-1.624;2023-04-15T04:32:02;3.85;;;1.30;;
73120;SDS011;61307;49.628;-1.624;2023-04-15T04:34:30;2.53;;;1.23;;
73120;SDS011;61307;49.628;-1.624;2023-04-15T04:36:58;4.22;;;1.52;;
73120;SDS011;61307;49.628;-1.624;2023-04-15T04:39:25;4.28;;;1.20;;
73120;SDS011;61307;49.628;-1.624;2023-04-15T04:41:52;3.40;;;1.42;;
73120;SDS011;61307;49.628;-1.624;2023-04-15T04:44:20;4.20;;;1.40;;
73120;SDS011;61307;49.628;-1.624;2023-04-15T04:46:47;4.10;;;1.33;;
73120;SDS011;61307;49.628;-1.624;2023-04-15T04:49:14;3.65;;;1.30;;
73120;SDS011;61307;49.628;-1.624;2023-04-15T04:51:41;4.10;;;1.50;;
73120;SDS011;61307;49.628;-1.624;2023-04-15T04:54:09;5.97;;;1.52;;
73120;SDS011;61307;49.628;-1.624;2023-04-15T04:56:37;5.50;;;1.55;;
73120;SDS011;61307;49.628;-1.624;2023-04-15T04:59:04;2.42;;;1.15;;
73120;SDS011;61307;49.628;-1.624;2023-04-15T05:01:31;3.42;;;1.20;;
73120;SDS011;61307;49.628;-1.624;2023-04-15T05:03:58;3.33;;;1.23;;
73120;SDS011;61307;49.628;-1.624;2023-04-15T05:06:26;4.25;;;1.30;;
73120;SDS011;61307;49.628;-1.624;2023-04-15T05:08:54;2.70;;;1.35;;
73120;SDS011;61307;49.628;-1.624;2023-04-15T05:11:23;3.83;;;1.52;;
73120;SDS011;61307;49.628;-1.624;2023-04-15T05:13:50;3.95;;;1.35;;
73120;SDS011;61307;49.628;-1.624;2023-04-15T05:16:17;4.72;;;1.30;;
73120;SDS011;61307;49.628;-1.624;2023-04-15T05:18:45;3.28;;;1.15;;
73120;SDS011;61307;49.628;-1.624;2023-04-15T05:21:12;2.53;;;1.40;;
73120;SDS011;61307;49.628;-1.624;2023-04-15T05:23:39;3.35;;;1.02;;
73120;SDS011;61307;49.628;-1.624;2023-04-15T05:26:06;4.40;;;1.50;;
73120;SDS011;61307;49.628;-1.624;2023-04-15T05:28:35;3.78;;;1.40;;
73120;SDS011;61307;49.628;-1.624;2023-04-15T05:31:02;3.13;;;1.20;;
73120;SDS011;61307;49.628;-1.624;2023-04-15T05:33:29;3.47;;;1.10;;
73120;SDS011;61307;49.628;-1.624;2023-04-15T05:35:56;3.53;;;1.60;;
73120;SDS011;61307;49.628;-1.624;2023-04-15T05:38:23;2.25;;;1.40;;
73120;SDS011;61307;49.628;-1.624;2023-04-15T05:40:50;1.90;;;1.13;;
73120;SDS011;61307;49.628;-1.624;2023-04-15T05:43:17;2.90;;;1.35;;
73120;SDS011;61307;49.628;-1.624;2023-04-15T05:45:45;3.90;;;1.60;;
73120;SDS011;61307;49.628;-1.624;2023-04-15T05:48:12;2.42;;;1.30;;
73120;SDS011;61307;49.628;-1.624;2023-04-15T05:50:39;3.53;;;1.42;;
73120;SDS011;61307;49.628;-1.624;2023-04-15T05:53:07;4.68;;;1.70;;
73120;SDS011;61307;49.628;-1.624;2023-04-15T05:55:34;2.25;;;1.20;;
73120;SDS011;61307;49.628;-1.624;2023-04-15T05:58:01;5.07;;;1.70;;
73120;SDS011;61307;49.628;-1.624;2023-04-15T06:00:29;2.72;;;1.30;;
73120;SDS011;61307;49.628;-1.624;2023-04-15T06:02:57;4.22;;;1.50;;
73120;SDS011;61307;49.628;-1.624;2023-04-15T06:05:25;2.75;;;1.33;;
73120;SDS011;61307;49.628;-1.624;2023-04-15T06:07:52;2.72;;;1.10;;
73120;SDS011;61307;49.628;-1.624;2023-04-15T06:10:19;2.55;;;1.20;;
73120;SDS011;61307;49.628;-1.624;2023-04-15T06:12:46;2.50;;;1.27;;
73120;SDS011;61307;49.628;-1.624;2023-04-15T06:15:13;2.22;;;1.27;;
73120;SDS011;61307;49.628;-1.624;2023-04-15T06:17:40;2.88;;;1.40;;
73120;SDS011;61307;49.628;-1.624;2023-04-15T06:20:10;3.00;;;1.30;;
73120;SDS011;61307;49.628;-1.624;2023-04-15T06:22:38;2.83;;;1.38;;
73120;SDS011;61307;49.628;-1.624;2023-04-15T06:25:05;2.92;;;1.65;;
73120;SDS011;61307;49.628;-1.624;2023-04-15T06:27:33;4.90;;;1.85;;
73120;SDS011;61307;49.628;-1.624;2023-04-15T06:30:00;2.42;;;1.30;;
73120;SDS011;61307;49.628;-1.624;2023-04-15T06:32:27;4.10;;;1.33;;
73120;SDS011;61307;49.628;-1.624;2023-04-15T06:34:54;5.03;;;1.25;;
73120;SDS011;61307;49.628;-1.624;2023-04-15T06:37:23;3.80;;;1.42;;
73120;SDS011;61307;49.628;-1.624;2023-04-15T06:39:50;2.72;;;1.20;;
73120;SDS011;61307;49.628;-1.624;2023-04-15T06:42:17;2.85;;;1.42;;
73120;SDS011;61307;49.628;-1.624;2023-04-15T06:44:44;2.55;;;1.52;;
73120;SDS011;61307;49.628;-1.624;2023-04-15T06:47:11;3.40;;;1.30;;
73120;SDS011;61307;49.628;-1.624;2023-04-15T06:49:39;3.65;;;1.40;;
73120;SDS011;61307;49.628;-1.624;2023-04-15T06:52:07;6.28;;;1.52;;
73120;SDS011;61307;49.628;-1.624;2023-04-15T06:54:35;2.83;;;1.38;;
73120;SDS011;61307;49.628;-1.624;2023-04-15T06:57:02;3.50;;;1.50;;
73120;SDS011;61307;49.628;-1.624;2023-04-15T06:59:29;2.05;;;1.08;;
73120;SDS011;61307;49.628;-1.624;2023-04-15T07:01:56;2.20;;;1.40;;
73120;SDS011;61307;49.628;-1.624;2023-04-15T07:04:23;2.60;;;1.20;;
73120;SDS011;61307;49.628;-1.624;2023-04-15T07:06:51;3.60;;;1.55;;
73120;SDS011;61307;49.628;-1.624;2023-04-15T07:09:19;4.18;;;1.30;;
73120;SDS011;61307;49.628;-1.624;2023-04-15T07:11:48;3.67;;;1.20;;
73120;SDS011;61307;49.628;-1.624;2023-04-15T07:14:15;2.15;;;1.20;;
73120;SDS011;61307;49.628;-1.624;2023-04-15T07:16:42;4.00;;;1.30;;
73120;SDS011;61307;49.628;-1.624;2023-04-15T07:19:10;2.33;;;1.35;;
73120;SDS011;61307;49.628;-1.624;2023-04-15T07:21:37;4.43;;;1.45;;
73120;SDS011;61307;49.628;-1.624;2023-04-15T07:24:04;2.63;;;1.30;;
73120;SDS011;61307;49.628;-1.624;2023-04-15T07:26:32;2.97;;;1.00;;
73120;SDS011;61307;49.628;-1.624;2023-04-15T07:29:00;2.83;;;1.33;;
73120;SDS011;61307;49.628;-1.624;2023-04-15T07:31:27;2.47;;;1.20;;
73120;SDS011;61307;49.628;-1.624;2023-04-15T07:33:55;3.28;;;1.27;;
73120;SDS011;61307;49.628;-1.624;2023-04-15T07:36:22;4.45;;;1.65;;
73120;SDS011;61307;49.628;-1.624;2023-04-15T07:38:49;2.28;;;1.30;;
73120;SDS011;61307;49.628;-1.624;2023-04-15T07:41:16;3.08;;;1.17;;
73120;SDS011;61307;49.628;-1.624;2023-04-15T07:43:44;1.10;;;1.00;;
73120;SDS011;61307;49.628;-1.624;2023-04-15T07:46:13;2.83;;;1.23;;
73120;SDS011;61307;49.628;-1.624;2023-04-15T07:48:40;2.10;;;1.20;;
73120;SDS011;61307;49.628;-1.624;2023-04-15T07:51:07;2.33;;;1.08;;
73120;SDS011;61307;49.628;-1.624;2023-04-15T07:53:35;2.80;;;1.75;;
73120;SDS011;61307;49.628;-1.624;2023-04-15T07:56:02;2.55;;;1.08;;
73120;SDS011;61307;49.628;-1.624;2023-04-15T07:58:29;2.60;;;1.30;;
73120;SDS011;61307;49.628;-1.624;2023-04-15T08:00:56;2.65;;;1.10;;
73120;SDS011;61307;49.628;-1.624;2023-04-15T08:03:25;2.88;;;1.45;;
73120;SDS011;61307;49.628;-1.624;2023-04-15T08:05:52;1.90;;;1.00;;
73120;SDS011;61307;49.628;-1.624;2023-04-15T08:08:19;3.88;;;1.75;;
73120;SDS011;61307;49.628;-1.624;2023-04-15T08:10:46;1.83;;;1.15;;
73120;SDS011;61307;49.628;-1.624;2023-04-15T08:13:13;2.53;;;0.95;;
73120;SDS011;61307;49.628;-1.624;2023-04-15T08:15:41;2.70;;;1.13;;
73120;SDS011;61307;49.628;-1.624;2023-04-15T08:18:08;1.90;;;1.02;;
73120;SDS011;61307;49.628;-1.624;2023-04-15T08:20:36;1.80;;;1.15;;
73120;SDS011;61307;49.628;-1.624;2023-04-15T08:23:03;1.73;;;1.02;;
73120;SDS011;61307;49.628;-1.624;2023-04-15T08:25:30;2.17;;;1.25;;
73120;SDS011;61307;49.628;-1.624;2023-04-15T08:27:57;3.42;;;1.30;;
73120;SDS011;61307;49.628;-1.624;2023-04-15T08:30:29;2.88;;;1.08;;
73120;SDS011;61307;49.628;-1.624;2023-04-15T08:32:56;1.48;;;0.90;;
73120;SDS011;61307;49.628;-1.624;2023-04-15T08:35:23;2.95;;;1.15;;
73120;SDS011;61307;49.628;-1.624;2023-04-15T08:37:51;1.60;;;1.05;;
73120;SDS011;61307;49.628;-1.624;2023-04-15T08:40:18;1.42;;;1.10;;
73120;SDS011;61307;49.628;-1.624;2023-04-15T08:42:48;1.65;;;1.00;;
73120;SDS011;61307;49.628;-1.624;2023-04-15T08:45:19;2.65;;;1.08;;
73120;SDS011;61307;49.628;-1.624;2023-04-15T08:47:46;2.90;;;1.20;;
73120;SDS011;61307;49.628;-1.624;2023-04-15T08:50:19;3.20;;;1.10;;
73120;SDS011;61307;49.628;-1.624;2023-04-15T08:52:47;1.40;;;0.98;;
73120;SDS011;61307;49.628;-1.624;2023-04-15T08:55:16;2.22;;;1.00;;
73120;SDS011;61307;49.628;-1.624;2023-04-15T08:57:43;3.90;;;1.25;;
73120;SDS011;61307;49.628;-1.624;2023-04-15T09:00:11;2.72;;;1.15;;
73120;SDS011;61307;49.628;-1.624;2023-04-15T09:02:39;2.78;;;1.10;;
73120;SDS011;61307;49.628;-1.624;2023-04-15T09:05:07;2.33;;;1.00;;
73120;SDS011;61307;49.628;-1.624;2023-04-15T09:07:34;3.50;;;1.30;;
73120;SDS011;61307;49.628;-1.624;2023-04-15T09:10:02;2.08;;;1.20;;
73120;SDS011;61307;49.628;-1.624;2023-04-15T09:12:32;2.22;;;1.20;;
73120;SDS011;61307;49.628;-1.624;2023-04-15T09:15:01;3.22;;;1.10;;
73120;SDS011;61307;49.628;-1.624;2023-04-15T09:17:28;2.65;;;1.20;;
73120;SDS011;61307;49.628;-1.624;2023-04-15T09:20:08;2.17;;;1.20;;
73120;SDS011;61307;49.628;-1.624;2023-04-15T09:22:37;3.55;;;1.05;;
73120;SDS011;61307;49.628;-1.624;2023-04-15T09:25:08;2.63;;;1.17;;
73120;SDS011;61307;49.628;-1.624;2023-04-15T09:27:53;1.77;;;1.02;;
73120;SDS011;61307;49.628;-1.624;2023-04-15T09:30:21;1.95;;;0.98;;
73120;SDS011;61307;49.628;-1.624;2023-04-15T09:32:49;2.53;;;1.10;;
73120;SDS011;61307;49.628;-1.624;2023-04-15T09:35:17;3.83;;;1.20;;
73120;SDS011;61307;49.628;-1.624;2023-04-15T09:37:45;2.95;;;1.48;;
73120;SDS011;61307;49.628;-1.624;2023-04-15T09:40:12;3.92;;;1.40;;
73120;SDS011;61307;49.628;-1.624;2023-04-15T09:42:54;2.40;;;1.23;;
73120;SDS011;61307;49.628;-1.624;2023-04-15T09:45:22;2.60;;;1.05;;
73120;SDS011;61307;49.628;-1.624;2023-04-15T09:47:49;2.60;;;1.20;;
73120;SDS011;61307;49.628;-1.624;2023-04-15T09:50:17;1.55;;;1.00;;
73120;SDS011;61307;49.628;-1.624;2023-04-15T09:52:45;3.70;;;1.67;;
73120;SDS011;61307;49.628;-1.624;2023-04-15T09:55:13;7.38;;;1.92;;
73120;SDS011;61307;49.628;-1.624;2023-04-15T09:57:41;2.38;;;1.23;;
73120;SDS011;61307;49.628;-1.624;2023-04-15T10:00:10;2.40;;;1.20;;
73120;SDS011;61307;49.628;-1.624;2023-04-15T10:02:39;1.98;;;1.23;;
73120;SDS011;61307;49.628;-1.624;2023-04-15T10:05:07;2.28;;;1.20;;
73120;SDS011;61307;49.628;-1.624;2023-04-15T10:07:37;2.30;;;1.00;;
73120;SDS011;61307;49.628;-1.624;2023-04-15T10:10:07;1.77;;;1.20;;
73120;SDS011;61307;49.628;-1.624;2023-04-15T10:12:35;3.33;;;1.13;;
73120;SDS011;61307;49.628;-1.624;2023-04-15T10:15:03;2.58;;;1.20;;
73120;SDS011;61307;49.628;-1.624;2023-04-15T10:17:33;3.22;;;1.35;;
73120;SDS011;61307;49.628;-1.624;2023-04-15T10:20:01;2.40;;;1.30;;
73120;SDS011;61307;49.628;-1.624;2023-04-15T10:22:29;1.33;;;0.80;;
73120;SDS011;61307;49.628;-1.624;2023-04-15T10:24:57;2.15;;;1.20;;
73120;SDS011;61307;49.628;-1.624;2023-04-15T10:27:25;2.15;;;1.08;;
73120;SDS011;61307;49.628;-1.624;2023-04-15T10:29:53;1.70;;;0.90;;
73120;SDS011;61307;49.628;-1.624;2023-04-15T10:32:21;2.60;;;1.30;;
73120;SDS011;61307;49.628;-1.624;2023-04-15T10:34:52;3.15;;;1.23;;
73120;SDS011;61307;49.628;-1.624;2023-04-15T10:37:20;1.90;;;1.27;;
73120;SDS011;61307;49.628;-1.624;2023-04-15T10:39:48;2.70;;;1.20;;
73120;SDS011;61307;49.628;-1.624;2023-04-15T10:42:15;2.22;;;1.10;;
73120;SDS011;61307;49.628;-1.624;2023-04-15T10:44:44;2.17;;;1.10;;
73120;SDS011;61307;49.628;-1.624;2023-04-15T10:47:15;4.55;;;1.30;;
73120;SDS011;61307;49.628;-1.624;2023-04-15T10:49:47;2.95;;;1.30;;
73120;SDS011;61307;49.628;-1.624;2023-04-15T10:52:21;4.72;;;1.23;;
73120;SDS011;61307;49.628;-1.624;2023-04-15T10:54:49;2.47;;;1.38;;
73120;SDS011;61307;49.628;-1.624;2023-04-15T10:57:33;3.67;;;1.23;;
73120;SDS011;61307;49.628;-1.624;2023-04-15T11:00:02;2.72;;;1.05;;
73120;SDS011;61307;49.628;-1.624;2023-04-15T11:02:40;4.93;;;1.30;;
73120;SDS011;61307;49.628;-1.624;2023-04-15T11:05:08;3.28;;;1.25;;
73120;SDS011;61307;49.628;-1.624;2023-04-15T11:07:38;2.25;;;1.10;;
73120;SDS011;61307;49.628;-1.624;2023-04-15T11:13:31;2.42;;;1.20;;
73120;SDS011;61307;49.628;-1.624;2023-04-15T11:15:59;3.05;;;1.30;;
73120;SDS011;61307;49.628;-1.624;2023-04-15T11:18:28;2.05;;;1.10;;
73120;SDS011;61307;49.628;-1.624;2023-04-15T11:20:57;4.75;;;1.10;;
73120;SDS011;61307;49.628;-1.624;2023-04-15T11:26:11;1.40;;;1.00;;
73120;SDS011;61307;49.628;-1.624;2023-04-15T11:28:40;3.72;;;1.20;;
73120;SDS011;61307;49.628;-1.624;2023-04-15T11:31:09;5.78;;;1.23;;
73120;SDS011;61307;49.628;-1.624;2023-04-15T11:33:38;4.47;;;1.40;;
73120;SDS011;61307;49.628;-1.624;2023-04-15T11:36:11;3.35;;;1.20;;
73120;SDS011;61307;49.628;-1.624;2023-04-15T11:38:41;4.55;;;1.40;;
73120;SDS011;61307;49.628;-1.624;2023-04-15T11:41:10;2.13;;;1.08;;
73120;SDS011;61307;49.628;-1.624;2023-04-15T11:43:37;2.85;;;1.40;;
73120;SDS011;61307;49.628;-1.624;2023-04-15T11:46:04;14.75;;;2.17;;
73120;SDS011;61307;49.628;-1.624;2023-04-15T11:48:33;26.83;;;2.65;;
73120;SDS011;61307;49.628;-1.624;2023-04-15T11:51:01;21.45;;;3.40;;
73120;SDS011;61307;49.628;-1.624;2023-04-15T11:53:36;21.85;;;3.10;;
73120;SDS011;61307;49.628;-1.624;2023-04-15T11:56:05;22.58;;;2.70;;
73120;SDS011;61307;49.628;-1.624;2023-04-15T11:58:35;23.80;;;3.80;;
73120;SDS011;61307;49.628;-1.624;2023-04-15T12:01:03;21.05;;;2.10;;
73120;SDS011;61307;49.628;-1.624;2023-04-15T12:03:35;23.00;;;2.92;;
73120;SDS011;61307;49.628;-1.624;2023-04-15T12:06:04;25.35;;;3.13;;
73120;SDS011;61307;49.628;-1.624;2023-04-15T12:11:43;12.27;;;1.83;;
73120;SDS011;61307;49.628;-1.624;2023-04-15T12:14:15;10.50;;;1.60;;
73120;SDS011;61307;49.628;-1.624;2023-04-15T12:16:48;7.72;;;1.50;;
73120;SDS011;61307;49.628;-1.624;2023-04-15T12:19:21;6.15;;;1.42;;
73120;SDS011;61307;49.628;-1.624;2023-04-15T12:21:50;12.43;;;1.80;;
73120;SDS011;61307;49.628;-1.624;2023-04-15T12:24:19;5.20;;;1.45;;
73120;SDS011;61307;49.628;-1.624;2023-04-15T12:26:49;7.78;;;1.73;;
73120;SDS011;61307;49.628;-1.624;2023-04-15T12:29:20;16.35;;;1.70;;
73120;SDS011;61307;49.628;-1.624;2023-04-15T12:31:52;12.95;;;1.80;;
73120;SDS011;61307;49.628;-1.624;2023-04-15T12:34:29;8.73;;;1.60;;
73120;SDS011;61307;49.628;-1.624;2023-04-15T12:36:58;7.68;;;1.45;;
73120;SDS011;61307;49.628;-1.624;2023-04-15T12:39:27;8.60;;;1.67;;
73120;SDS011;61307;49.628;-1.624;2023-04-15T12:41:56;7.47;;;1.63;;
73120;SDS011;61307;49.628;-1.624;2023-04-15T12:44:26;4.28;;;1.30;;
73120;SDS011;61307;49.628;-1.624;2023-04-15T12:46:54;6.25;;;1.40;;
73120;SDS011;61307;49.628;-1.624;2023-04-15T12:49:21;4.13;;;1.50;;
73120;SDS011;61307;49.628;-1.624;2023-04-15T12:51:50;4.47;;;1.60;;
